Time;durP1;ratioP1;P1;durP2;ratioP2;P2;SDS_P1;SDS_P2;PMS_P1;PMS_P2;Temp;Humidity;BMP_temperature;BMP_pressure;BME280_temperature;BME280_humidity;BME280_pressure;Samples;Min_cycle;Max_cycle;Signal;HPM_P1;HPM_P2
2023/09/30 00:00:28;;;;;;;28.27;26.70;;;;;;;11.14;100.00;101454.69;5032678;28;20099;-73
2023/09/30 00:02:54;;;;;;;33.80;31.98;;;;;;;11.26;100.00;101460.31;5032799;28;20412;-73
2023/09/30 00:05:24;;;;;;;33.88;32.17;;;;;;;10.41;100.00;101457.41;5030836;28;20053;-74
2023/09/30 00:07:54;;;;;;;32.30;30.48;;;;;;;10.43;100.00;101458.03;5032790;28;20061;-74
2023/09/30 00:10:21;;;;;;;29.42;27.83;;;;;;;10.68;100.00;101461.19;5032429;28;20049;-74
2023/09/30 00:12:47;;;;;;;32.30;30.50;;;;;;;11.15;100.00;101454.47;5029891;28;20045;-74
2023/09/30 00:15:14;;;;;;;32.33;30.42;;;;;;;11.23;100.00;101449.03;5031950;28;20054;-74
2023/09/30 00:17:41;;;;;;;25.75;24.15;;;;;;;10.22;100.00;101456.13;5032772;28;20060;-74
2023/09/30 00:20:10;;;;;;;31.15;29.65;;;;;;;11.16;100.00;101458.75;5032546;28;20060;-73
2023/09/30 00:22:37;;;;;;;35.65;33.85;;;;;;;11.12;100.00;101454.84;5021635;28;20057;-74
2023/09/30 00:25:07;;;;;;;31.60;29.38;;;;;;;10.72;100.00;101449.16;5032128;28;20046;-73
2023/09/30 00:27:34;;;;;;;33.17;31.38;;;;;;;10.75;100.00;101453.28;5038330;28;20059;-73
2023/09/30 00:30:00;;;;;;;30.55;28.85;;;;;;;11.11;100.00;101455.06;5065721;28;20429;-73
2023/09/30 00:32:33;;;;;;;31.23;29.42;;;;;;;11.13;100.00;101453.81;5054897;28;20059;-73
2023/09/30 00:35:10;;;;;;;28.60;27.00;;;;;;;10.55;100.00;101456.53;5059801;28;20055;-74
2023/09/30 00:37:37;;;;;;;29.80;28.00;;;;;;;10.73;100.00;101450.00;5052356;28;20056;-74
2023/09/30 00:40:07;;;;;;;30.75;28.95;;;;;;;10.51;100.00;101454.47;5065302;28;20044;-74
2023/09/30 00:42:34;;;;;;;28.25;26.65;;;;;;;10.69;100.00;101454.88;5058452;28;20487;-74
2023/09/30 00:45:04;;;;;;;29.17;27.48;;;;;;;10.95;100.00;101446.34;5063953;28;20048;-74
2023/09/30 00:47:34;;;;;;;30.98;29.17;;;;;;;10.83;100.00;101442.50;5070889;28;20453;-73
2023/09/30 00:50:00;;;;;;;31.65;29.42;;;;;;;10.80;100.00;101439.41;5059003;28;20048;-74
2023/09/30 00:52:28;;;;;;;33.15;31.15;;;;;;;10.82;100.00;101446.19;5054516;28;20049;-74
2023/09/30 00:54:55;;;;;;;25.67;24.17;;;;;;;10.85;100.00;101447.66;5056472;28;20098;-74
2023/09/30 00:57:24;;;;;;;27.48;25.77;;;;;;;10.59;100.00;101450.84;5062873;28;20433;-74
2023/09/30 00:59:53;;;;;;;25.48;23.98;;;;;;;10.50;100.00;101450.16;5065208;28;20530;-74
2023/09/30 01:02:21;;;;;;;29.77;28.23;;;;;;;10.38;100.00;101448.97;5056121;28;20094;-73
2023/09/30 01:04:56;;;;;;;29.67;28.08;;;;;;;10.45;100.00;101450.72;5054230;28;20055;-74
2023/09/30 01:07:23;;;;;;;30.48;28.50;;;;;;;10.38;100.00;101454.28;5065215;28;20434;-74
2023/09/30 01:09:50;;;;;;;31.35;29.65;;;;;;;10.52;100.00;101454.25;5058080;28;20045;-73
2023/09/30 01:12:17;;;;;;;31.65;29.85;;;;;;;10.39;100.00;101462.09;5060102;28;20052;-72
2023/09/30 01:14:45;;;;;;;28.10;26.40;;;;;;;10.65;100.00;101447.44;5061400;28;20056;-74
2023/09/30 01:17:13;;;;;;;29.88;28.08;;;;;;;10.87;100.00;101445.63;5055277;28;20060;-73
2023/09/30 01:19:43;;;;;;;31.23;29.45;;;;;;;10.52;100.00;101456.09;5056908;28;20049;-74
2023/09/30 01:22:11;;;;;;;28.45;26.75;;;;;;;10.61;100.00;101454.16;5068936;28;20500;-74
2023/09/30 01:24:42;;;;;;;30.20;28.30;;;;;;;10.62;100.00;101446.00;5054291;28;20053;-74
2023/09/30 01:27:19;;;;;;;34.08;32.17;;;;;;;10.40;100.00;101441.66;5053772;28;20051;-73
2023/09/30 01:29:46;;;;;;;37.80;35.63;;;;;;;10.68;100.00;101447.06;5057936;28;20056;-73
2023/09/30 01:32:13;;;;;;;32.90;31.00;;;;;;;10.86;100.00;101442.16;5054851;28;20052;-73
2023/09/30 01:34:40;;;;;;;35.08;32.97;;;;;;;10.75;100.00;101442.66;5040692;28;20493;-73
2023/09/30 01:37:07;;;;;;;35.40;33.40;;;;;;;10.50;100.00;101443.03;5043888;28;20616;-73
2023/09/30 01:39:35;;;;;;;32.05;30.45;;;;;;;10.58;100.00;101442.06;5052803;28;20048;-73
2023/09/30 01:42:02;;;;;;;30.45;28.85;;;;;;;10.55;100.00;101445.91;5053358;28;20052;-74
2023/09/30 01:44:29;;;;;;;30.20;28.50;;;;;;;10.53;100.00;101441.81;5065007;28;20064;-73
2023/09/30 01:46:56;;;;;;;32.67;30.77;;;;;;;10.43;100.00;101447.41;5059436;28;20460;-73
2023/09/30 01:49:26;;;;;;;30.30;28.50;;;;;;;10.50;100.00;101443.03;5068402;28;20497;-73
2023/09/30 01:51:52;;;;;;;27.60;25.90;;;;;;;10.38;100.00;101443.66;5068965;28;20047;-73
2023/09/30 01:54:19;;;;;;;28.67;27.13;;;;;;;10.34;100.00;101443.22;5057502;28;20049;-73
2023/09/30 01:56:47;;;;;;;25.90;23.90;;;;;;;10.35;100.00;101452.00;5053016;28;20037;-74
2023/09/30 01:59:14;;;;;;;30.98;29.38;;;;;;;9.79;100.00;101450.66;5051454;28;20071;-74
2023/09/30 02:01:41;;;;;;;38.35;36.45;;;;;;;10.38;100.00;101441.88;5050597;28;20052;-73
2023/09/30 02:04:08;;;;;;;45.92;43.72;;;;;;;10.47;100.00;101450.53;5056964;28;20063;-74
2023/09/30 02:06:45;;;;;;;36.42;34.58;;;;;;;10.54;100.00;101441.63;5050082;28;20443;-73
2023/09/30 02:09:12;;;;;;;31.83;30.02;;;;;;;10.47;100.00;101451.38;5059526;28;20060;-73
2023/09/30 02:11:41;;;;;;;37.80;35.63;;;;;;;10.59;100.00;101450.84;5055490;28;20063;-73
2023/09/30 02:14:12;;;;;;;36.80;34.90;;;;;;;10.55;100.00;101445.09;5050470;28;20567;-74
2023/09/30 02:16:39;;;;;;;31.90;30.20;;;;;;;9.85;100.00;101446.47;5047564;28;20477;-73
2023/09/30 02:19:10;;;;;;;41.70;39.60;;;;;;;9.82;100.00;101449.47;5053154;28;20044;-74
2023/09/30 02:21:37;;;;;;;40.38;38.38;;;;;;;9.98;100.00;101449.28;5054622;28;20127;-74
2023/09/30 02:24:11;;;;;;;38.10;36.20;;;;;;;10.14;100.00;101448.28;5049361;28;20103;-74
2023/09/30 02:26:38;;;;;;;40.13;38.17;;;;;;;9.85;100.00;101444.63;5055022;28;20044;-73
2023/09/30 02:29:07;;;;;;;33.58;31.85;;;;;;;9.98;100.00;101438.66;5037939;28;20073;-73
2023/09/30 02:31:35;;;;;;;37.83;35.97;;;;;;;10.02;100.00;101447.09;5027670;28;20499;-73
2023/09/30 02:34:04;;;;;;;39.53;37.63;;;;;;;10.02;100.00;101445.28;5023463;28;20049;-73
2023/09/30 02:36:31;;;;;;;34.63;32.72;;;;;;;9.91;100.00;101445.72;5024259;28;20061;-74
2023/09/30 02:38:58;;;;;;;36.78;34.97;;;;;;;9.98;100.00;101454.59;5028662;28;20132;-73
2023/09/30 02:41:25;;;;;;;30.23;28.73;;;;;;;9.67;100.00;101448.66;5029096;28;20046;-73
2023/09/30 02:43:52;;;;;;;29.38;27.65;;;;;;;9.85;100.00;101447.28;5027806;28;20056;-73
2023/09/30 02:46:18;;;;;;;28.50;26.90;;;;;;;9.74;100.00;101446.91;5018111;28;20046;-73
2023/09/30 02:48:47;;;;;;;28.58;26.98;;;;;;;9.09;100.00;101448.34;5024041;28;20057;-73
2023/09/30 02:51:14;;;;;;;29.45;28.08;;;;;;;9.65;100.00;101448.81;5029789;28;20053;-73
2023/09/30 02:53:41;;;;;;;27.50;26.10;;;;;;;9.84;100.00;101456.25;5026168;28;20049;-73
2023/09/30 02:56:08;;;;;;;31.27;29.88;;;;;;;9.72;100.00;101443.63;5026823;28;20045;-74
2023/09/30 02:58:35;;;;;;;31.83;29.90;;;;;;;9.88;100.00;101462.00;5024622;28;20058;-73
2023/09/30 03:01:01;;;;;;;27.50;25.80;;;;;;;9.90;100.00;101453.88;5029168;28;20049;-73
2023/09/30 03:03:28;;;;;;;29.85;28.20;;;;;;;9.91;100.00;101447.56;5024902;28;20053;-74
2023/09/30 03:05:57;;;;;;;27.38;25.98;;;;;;;9.87;100.00;101447.09;5028951;28;20054;-74
2023/09/30 03:08:25;;;;;;;26.20;24.70;;;;;;;9.83;100.00;101445.81;5020181;28;20041;-73
2023/09/30 03:10:54;;;;;;;25.17;23.65;;;;;;;9.25;100.00;101448.22;5027979;28;20041;-73
2023/09/30 03:13:23;;;;;;;27.63;26.13;;;;;;;9.59;100.00;101447.75;5030024;28;20058;-74
2023/09/30 03:15:51;;;;;;;27.98;26.23;;;;;;;9.57;100.00;101446.28;5033108;28;20045;-73
2023/09/30 03:18:22;;;;;;;31.58;29.98;;;;;;;8.95;100.00;101432.22;5033746;28;20140;-73
2023/09/30 03:20:50;;;;;;;30.42;28.75;;;;;;;9.17;100.00;101435.06;5030865;28;20099;-73
2023/09/30 03:23:19;;;;;;;31.75;30.20;;;;;;;9.06;100.00;101441.59;5033568;28;20442;-73
2023/09/30 03:25:46;;;;;;;34.30;32.70;;;;;;;9.00;100.00;101444.13;5033986;28;20057;-73
2023/09/30 03:28:19;;;;;;;25.70;24.30;;;;;;;9.39;100.00;101452.72;5043333;28;20049;-75
2023/09/30 03:30:46;;;;;;;;;;;;;;;9.60;100.00;101448.56;5060032;28;20045;-73
2023/09/30 03:33:13;;;;;;;32.40;30.88;;;;;;;9.45;100.00;101447.72;5060090;28;19920;-74
2023/09/30 03:35:45;;;;;;;28.10;26.70;;;;;;;9.43;100.00;101455.84;5063097;28;20068;-73
2023/09/30 03:38:12;;;;;;;25.88;24.38;;;;;;;9.20;100.00;101455.03;5060100;28;20563;-74
2023/09/30 03:40:47;;;;;;;25.52;24.13;;;;;;;9.28;100.00;101450.50;5052518;28;20505;-73
2023/09/30 03:43:15;;;;;;;27.40;25.90;;;;;;;9.49;100.00;101443.69;5053618;28;20049;-73
2023/09/30 03:45:42;;;;;;;27.30;25.70;;;;;;;9.50;100.00;101440.03;5058621;28;20476;-73
2023/09/30 03:48:10;;;;;;;29.15;27.45;;;;;;;9.56;100.00;101448.09;5064841;28;20040;-74
2023/09/30 03:50:37;;;;;;;29.40;27.75;;;;;;;9.62;100.00;101450.03;5056060;28;20495;-74
2023/09/30 03:53:07;;;;;;;28.38;26.83;;;;;;;9.56;100.00;101447.25;5066849;28;20438;-74
2023/09/30 03:55:34;;;;;;;27.88;26.38;;;;;;;9.68;100.00;101452.94;5058983;28;20049;-73
2023/09/30 03:58:02;;;;;;;33.10;31.50;;;;;;;9.84;100.00;101461.56;5056264;28;20046;-73
2023/09/30 04:00:29;;;;;;;29.80;27.92;;;;;;;9.64;100.00;101450.66;5062693;28;20049;-74
2023/09/30 04:02:58;;;;;;;26.20;24.85;;;;;;;9.63;100.00;101451.66;5057415;28;20040;-74
2023/09/30 04:05:29;;;;;;;25.33;23.92;;;;;;;9.77;100.00;101462.47;5061548;28;20060;-73
2023/09/30 04:07:55;;;;;;;25.35;23.85;;;;;;;9.49;100.00;101462.25;5062138;28;20049;-74
2023/09/30 04:10:23;;;;;;;22.45;21.25;;;;;;;9.43;100.00;101463.78;5062659;28;20456;-73
2023/09/30 04:12:50;;;;;;;21.02;19.17;;;;;;;9.33;100.00;101468.53;5059154;28;20052;-73
2023/09/30 04:15:20;;;;;;;21.05;19.65;;;;;;;9.59;100.00;101462.81;5055246;28;20048;-73
2023/09/30 04:17:47;;;;;;;20.58;19.27;;;;;;;9.63;100.00;101462.28;5056464;28;20072;-73
2023/09/30 04:20:21;;;;;;;20.67;19.38;;;;;;;9.63;100.00;101469.41;5054026;28;20052;-73
2023/09/30 04:22:48;;;;;;;19.15;17.92;;;;;;;9.47;100.00;101469.56;5048634;28;20579;-73
2023/09/30 04:25:16;;;;;;;22.83;20.95;;;;;;;9.60;100.00;101472.44;5049854;28;20103;-74
2023/09/30 04:27:44;;;;;;;21.50;20.20;;;;;;;9.43;100.00;101465.63;5047840;28;20072;-74
2023/09/30 04:30:11;;;;;;;22.10;20.40;;;;;;;9.28;100.00;101470.88;5029785;28;20050;-73
2023/09/30 04:32:39;;;;;;;22.88;21.23;;;;;;;9.89;100.00;101476.09;5029251;28;20051;-73
2023/09/30 04:35:07;;;;;;;20.90;19.60;;;;;;;9.93;100.00;101478.22;5030469;28;20068;-74
2023/09/30 04:37:36;;;;;;;22.55;21.05;;;;;;;9.31;100.00;101475.84;5023971;28;20049;-74
2023/09/30 04:40:07;;;;;;;22.25;20.92;;;;;;;9.84;100.00;101481.97;5029324;28;20052;-73
2023/09/30 04:42:36;;;;;;;20.73;19.33;;;;;;;10.01;100.00;101486.06;5033532;28;20436;-73
2023/09/30 04:45:05;;;;;;;19.10;17.90;;;;;;;10.18;100.00;101484.06;5033940;28;20049;-74
2023/09/30 04:47:32;;;;;;;21.20;20.00;;;;;;;9.94;100.00;101484.34;5027562;28;20053;-72
2023/09/30 04:50:04;;;;;;;22.00;20.60;;;;;;;10.21;100.00;101482.88;5028177;28;20049;-73
2023/09/30 04:52:31;;;;;;;23.73;22.33;;;;;;;10.07;100.00;101476.56;5028054;28;20235;-73
2023/09/30 04:54:59;;;;;;;21.52;20.13;;;;;;;10.31;100.00;101486.09;5028586;28;20053;-74
2023/09/30 04:57:26;;;;;;;22.52;21.23;;;;;;;10.20;100.00;101483.88;5024986;28;20080;-73
2023/09/30 04:59:53;;;;;;;24.25;22.55;;;;;;;10.35;100.00;101483.88;5030088;28;20054;-73
2023/09/30 05:02:20;;;;;;;24.08;22.67;;;;;;;10.48;100.00;101476.09;5029261;28;20128;-74
2023/09/30 05:04:47;;;;;;;24.95;22.85;;;;;;;10.58;100.00;101481.09;5029291;28;20064;-73
2023/09/30 05:07:15;;;;;;;25.30;23.90;;;;;;;10.78;100.00;101482.97;5029905;28;20053;-73
2023/09/30 05:09:43;;;;;;;25.85;24.42;;;;;;;10.87;100.00;101485.50;5028446;28;20085;-73
2023/09/30 05:12:10;;;;;;;24.65;22.88;;;;;;;10.99;100.00;101484.81;5029117;28;20442;-73
2023/09/30 05:14:38;;;;;;;24.33;22.92;;;;;;;11.25;100.00;101480.72;5027879;28;20511;-73
2023/09/30 05:17:05;;;;;;;24.92;23.42;;;;;;;11.15;100.00;101488.22;5029322;28;20083;-73
2023/09/30 05:19:32;;;;;;;24.38;22.98;;;;;;;11.31;100.00;101485.28;5029160;28;20080;-73
2023/09/30 05:22:00;;;;;;;29.00;27.02;;;;;;;11.28;100.00;101487.50;5029201;28;20041;-74
2023/09/30 05:24:29;;;;;;;24.95;23.45;;;;;;;11.50;100.00;101485.63;5029627;28;20050;-74
2023/09/30 05:26:56;;;;;;;25.65;24.05;;;;;;;10.97;100.00;101491.31;5029139;28;20041;-73
2023/09/30 05:29:23;;;;;;;32.85;29.98;;;;;;;11.48;100.00;101483.19;5054116;28;20481;-73
2023/09/30 05:31:50;;;;;;;32.92;30.67;;;;;;;11.80;100.00;101495.06;5055102;28;21680;-73
2023/09/30 05:34:17;;;;;;;31.02;28.60;;;;;;;11.93;100.00;101496.22;5052246;28;20049;-73
2023/09/30 05:36:44;;;;;;;36.17;33.67;;;;;;;12.06;100.00;101489.09;5049109;28;20352;-73
2023/09/30 05:39:11;;;;;;;36.08;32.92;;;;;;;12.16;100.00;101499.38;5046628;28;20519;-74
2023/09/30 05:41:41;;;;;;;43.60;28.20;;;;;;;12.29;100.00;101498.66;5051192;28;20115;-73
2023/09/30 05:44:08;;;;;;;27.55;25.80;;;;;;;12.67;100.00;101498.16;5060054;28;20148;-73
2023/09/30 05:46:35;;;;;;;30.20;28.38;;;;;;;12.73;100.00;101490.19;5051422;28;20080;-73
2023/09/30 05:49:09;;;;;;;26.75;25.25;;;;;;;12.87;100.00;101500.91;5044271;28;20106;-74
2023/09/30 05:51:36;;;;;;;32.03;28.92;;;;;;;13.20;100.00;101492.94;5054645;28;20107;-74
2023/09/30 05:54:04;;;;;;;26.10;24.60;;;;;;;13.49;100.00;101497.06;5050804;28;20044;-73
2023/09/30 05:56:32;;;;;;;32.65;29.02;;;;;;;13.69;100.00;101500.53;5057347;28;20135;-73
2023/09/30 05:59:01;;;;;;;30.25;27.70;;;;;;;13.73;100.00;101498.28;5058181;28;20179;-73
2023/09/30 06:01:27;;;;;;;29.20;27.23;;;;;;;13.59;100.00;101494.81;5049931;28;20052;-73
2023/09/30 06:03:54;;;;;;;34.35;28.98;;;;;;;14.04;100.00;101500.28;5051729;28;20041;-73
2023/09/30 06:06:25;;;;;;;26.83;25.20;;;;;;;14.01;100.00;101500.72;5050450;28;20115;-74
2023/09/30 06:08:53;;;;;;;24.65;23.25;;;;;;;14.34;100.00;101497.94;5049363;28;20053;-73
2023/09/30 06:11:24;;;;;;;26.27;24.40;;;;;;;14.33;100.00;101498.94;5053233;28;20450;-73
2023/09/30 06:13:51;;;;;;;26.50;24.90;;;;;;;14.52;100.00;101513.28;5050639;28;20132;-74
2023/09/30 06:16:20;;;;;;;27.33;25.50;;;;;;;14.83;100.00;101509.03;5050055;28;20084;-73
2023/09/30 06:18:48;;;;;;;36.63;33.50;;;;;;;14.95;100.00;101501.97;5056982;28;20502;-74
2023/09/30 06:21:17;;;;;;;37.95;34.55;;;;;;;15.23;100.00;101503.41;5049451;28;20489;-73
2023/09/30 06:23:44;;;;;;;29.38;27.00;;;;;;;15.47;100.00;101499.09;5056289;28;20049;-72
2023/09/30 06:26:11;;;;;;;25.20;23.60;;;;;;;15.52;100.00;101508.13;5052508;28;20407;-72
2023/09/30 06:28:40;;;;;;;31.35;29.02;;;;;;;18.92;100.00;101501.00;5051985;28;20049;-75
2023/09/30 06:31:07;;;;;;;28.45;26.40;;;;;;;18.75;100.00;101504.47;5046529;28;20084;-73
2023/09/30 06:33:37;;;;;;;27.55;25.75;;;;;;;16.86;100.00;101507.47;5054617;28;20107;-73
2023/09/30 06:36:09;;;;;;;28.05;26.23;;;;;;;16.76;100.00;101509.84;5050477;28;20521;-72
2023/09/30 06:38:36;;;;;;;24.70;23.20;;;;;;;17.06;100.00;101509.84;5054687;28;20047;-74
2023/09/30 06:41:03;;;;;;;29.23;27.33;;;;;;;17.10;100.00;101506.47;5058107;28;20534;-74
2023/09/30 06:43:30;;;;;;;27.95;26.25;;;;;;;17.00;100.00;101503.53;5055495;28;20051;-74
2023/09/30 06:45:57;;;;;;;27.80;26.10;;;;;;;16.92;100.00;101517.28;5054373;28;20045;-73
2023/09/30 06:48:24;;;;;;;33.03;30.63;;;;;;;17.24;100.00;101511.63;5049297;28;20048;-73
2023/09/30 06:50:52;;;;;;;32.55;29.55;;;;;;;17.39;100.00;101506.63;5051869;28;20041;-74
2023/09/30 06:53:21;;;;;;;25.98;24.27;;;;;;;17.35;100.00;101508.97;5047551;28;20577;-73
2023/09/30 06:55:48;;;;;;;27.52;25.65;;;;;;;17.71;100.00;101500.94;5052145;28;20091;-73
2023/09/30 06:58:20;;;;;;;27.27;25.45;;;;;;;17.84;100.00;101496.16;5055208;28;20049;-74
2023/09/30 07:00:47;;;;;;;20.58;19.17;;;;;;;18.37;100.00;101496.19;5051679;28;20052;-73
2023/09/30 07:03:15;;;;;;;23.58;21.15;;;;;;;18.40;100.00;101498.41;5048277;28;20044;-73
2023/09/30 07:05:42;;;;;;;23.48;21.77;;;;;;;18.50;100.00;101499.41;5046894;28;20495;-73
2023/09/30 07:08:10;;;;;;;25.77;23.83;;;;;;;18.66;100.00;101500.50;5048116;28;20068;-73
2023/09/30 07:10:37;;;;;;;24.10;22.30;;;;;;;18.96;100.00;101502.94;5064094;28;20435;-73
2023/09/30 07:13:06;;;;;;;33.22;30.63;;;;;;;19.03;100.00;101489.31;5049546;28;20494;-73
2023/09/30 07:15:33;;;;;;;28.10;25.75;;;;;;;19.05;100.00;101502.56;5052212;28;20515;-74
2023/09/30 07:18:00;;;;;;;30.77;28.65;;;;;;;19.11;100.00;101494.31;5052711;28;20561;-74
2023/09/30 07:20:26;;;;;;;28.63;26.73;;;;;;;19.38;100.00;101504.44;5059841;28;20406;-74
2023/09/30 07:22:53;;;;;;;24.27;22.60;;;;;;;19.43;100.00;101497.28;5053176;28;20040;-74
2023/09/30 07:25:24;;;;;;;26.45;24.65;;;;;;;19.45;100.00;101495.16;5057894;28;20339;-74
2023/09/30 07:27:52;;;;;;;26.45;24.08;;;;;;;19.98;100.00;101500.22;5049693;28;20045;-74
2023/09/30 07:30:18;;;;;;;28.13;26.25;;;;;;;19.83;100.00;101493.56;5054184;28;20502;-75
2023/09/30 07:32:46;;;;;;;26.83;24.98;;;;;;;20.95;100.00;101494.03;5059223;28;20130;-74
2023/09/30 07:35:15;;;;;;;26.35;24.60;;;;;;;21.38;100.00;101494.16;5063249;28;20421;-74
2023/09/30 07:37:43;;;;;;;31.80;29.60;;;;;;;21.82;100.00;101485.78;5055415;28;20384;-74
2023/09/30 07:40:11;;;;;;;27.48;25.48;;;;;;;22.06;100.00;101491.53;5056948;28;20056;-74
2023/09/30 07:42:40;;;;;;;27.95;26.05;;;;;;;22.38;100.00;101502.25;5058524;28;20048;-74
2023/09/30 07:45:08;;;;;;;27.48;25.48;;;;;;;23.03;100.00;101492.66;5043180;28;20052;-74
2023/09/30 07:47:35;;;;;;;26.67;24.98;;;;;;;23.25;100.00;101492.38;5047878;28;20061;-74
2023/09/30 07:50:02;;;;;;;27.50;25.67;;;;;;;23.51;100.00;101485.03;5053372;28;20044;-74
2023/09/30 07:52:29;;;;;;;29.02;27.05;;;;;;;22.86;100.00;101484.75;5052417;28;20037;-74
2023/09/30 07:54:56;;;;;;;26.52;24.88;;;;;;;23.90;100.00;101486.31;5056311;28;20429;-74
2023/09/30 07:57:22;;;;;;;30.73;28.15;;;;;;;24.12;100.00;101477.81;5052836;28;20049;-74
2023/09/30 07:59:51;;;;;;;26.88;25.00;;;;;;;23.92;100.00;101484.13;5051930;28;20049;-74
2023/09/30 08:02:18;;;;;;;28.13;26.23;;;;;;;23.85;100.00;101489.06;5056356;28;20045;-74
2023/09/30 08:04:45;;;;;;;25.98;24.17;;;;;;;23.51;100.00;101485.03;5052006;28;20445;-74
2023/09/30 08:07:13;;;;;;;31.38;29.20;;;;;;;22.43;100.00;101491.47;5054766;28;20437;-74
2023/09/30 08:09:40;;;;;;;24.63;22.75;;;;;;;22.04;100.00;101491.81;5058345;28;20053;-73
2023/09/30 08:12:07;;;;;;;26.83;24.83;;;;;;;23.08;100.00;101491.84;5059390;28;20135;-74
2023/09/30 08:14:34;;;;;;;26.42;24.42;;;;;;;23.36;100.00;101490.50;5059268;28;20426;-74
2023/09/30 08:17:03;;;;;;;24.77;23.08;;;;;;;23.07;100.00;101495.63;5045408;28;20049;-73
2023/09/30 08:19:30;;;;;;;27.00;25.35;;;;;;;22.84;100.00;101496.94;5047454;28;20045;-74
2023/09/30 08:21:58;;;;;;;27.05;25.25;;;;;;;23.87;100.00;101489.56;5054805;28;20061;-74
2023/09/30 08:24:25;;;;;;;25.17;23.27;;;;;;;24.40;100.00;101498.84;5056484;28;20067;-74
2023/09/30 08:26:56;;;;;;;28.48;26.42;;;;;;;24.05;100.00;101497.09;5062207;28;20506;-74
2023/09/30 08:29:23;;;;;;;24.52;22.83;;;;;;;25.09;100.00;101502.47;5057236;28;20045;-74
2023/09/30 08:31:51;;;;;;;28.77;26.77;;;;;;;25.18;100.00;101493.75;5062495;28;20059;-73
2023/09/30 08:34:21;;;;;;;26.50;24.73;;;;;;;25.76;100.00;101482.81;5054853;28;20049;-74
2023/09/30 08:36:47;;;;;;;49.97;27.67;;;;;;;24.30;100.00;101481.78;5050305;28;20049;-74
2023/09/30 08:39:14;;;;;;;27.48;25.42;;;;;;;23.45;100.00;101485.31;5049548;28;20056;-74
2023/09/30 08:41:44;;;;;;;28.50;26.50;;;;;;;24.84;100.00;101483.66;5055136;28;20460;-74
2023/09/30 08:44:11;;;;;;;26.65;24.52;;;;;;;24.49;100.00;101484.72;5057076;28;20049;-74
2023/09/30 08:46:38;;;;;;;27.05;25.15;;;;;;;26.10;100.00;101488.16;5056135;28;20056;-74
2023/09/30 08:49:06;;;;;;;27.30;25.40;;;;;;;26.51;100.00;101474.00;5055572;28;20045;-74
2023/09/30 08:51:37;;;;;;;28.75;26.85;;;;;;;24.50;100.00;101486.31;5060376;28;20137;-75
2023/09/30 08:54:05;;;;;;;27.75;25.83;;;;;;;23.81;100.00;101480.63;5056129;28;20052;-74
2023/09/30 08:56:33;;;;;;;27.67;25.63;;;;;;;25.41;100.00;101478.56;5058386;28;20498;-74
2023/09/30 08:59:02;;;;;;;25.95;24.20;;;;;;;24.66;100.00;101485.97;5062185;28;20053;-74
2023/09/30 09:01:30;;;;;;;28.23;26.33;;;;;;;26.01;96.18;101471.66;5056525;28;20442;-74
2023/09/30 09:03:57;;;;;;;26.02;24.33;;;;;;;26.01;93.18;101459.97;5060020;28;20526;-75
2023/09/30 09:06:26;;;;;;;27.50;25.60;;;;;;;25.49;99.53;101476.03;5058485;28;20056;-74
2023/09/30 09:08:54;;;;;;;52.75;26.13;;;;;;;26.77;93.46;101468.97;5059812;28;20049;-74
2023/09/30 09:11:21;;;;;;;25.27;23.38;;;;;;;26.66;83.38;101462.88;5057608;28;20053;-74
2023/09/30 09:13:50;;;;;;;25.13;23.23;;;;;;;25.21;99.48;101463.28;5060345;28;20056;-75
2023/09/30 09:16:19;;;;;;;27.17;25.15;;;;;;;26.52;90.33;101456.56;5060198;28;20502;-75
2023/09/30 09:18:47;;;;;;;27.00;25.10;;;;;;;25.96;88.16;101452.69;5060342;28;20052;-74
2023/09/30 09:21:16;;;;;;;26.92;24.95;;;;;;;25.39;95.61;101456.28;5058652;28;20048;-74
2023/09/30 09:23:44;;;;;;;26.13;24.33;;;;;;;25.03;100.00;101459.34;5063518;28;20045;-73
2023/09/30 09:26:13;;;;;;;26.05;24.25;;;;;;;25.40;96.37;101450.56;5064538;28;20056;-73
2023/09/30 09:28:41;;;;;;;26.55;23.98;;;;;;;27.16;83.36;101448.72;5054119;28;20044;-74
2023/09/30 09:31:23;;;;;;;25.58;23.88;;;;;;;26.26;86.71;101440.56;5035202;28;20077;-74
2023/09/30 09:33:51;;;;;;;22.50;20.90;;;;;;;26.09;94.31;101444.91;5025341;28;20132;-74
2023/09/30 09:36:19;;;;;;;26.85;25.05;;;;;;;27.64;69.58;101434.72;5029504;28;20056;-74
2023/09/30 09:38:47;;;;;;;24.05;22.25;;;;;;;26.38;85.62;101442.84;5023981;28;20069;-74
2023/09/30 09:41:16;;;;;;;24.27;22.52;;;;;;;26.40;95.62;101439.81;5030290;28;20564;-71
2023/09/30 09:43:44;;;;;;;24.92;23.15;;;;;;;26.28;86.80;101434.81;5025235;28;20239;-73
2023/09/30 09:46:13;;;;;;;23.30;21.60;;;;;;;27.38;66.42;101429.78;5025783;28;20053;-74
2023/09/30 09:48:41;;;;;;;23.77;22.05;;;;;;;26.59;82.74;101434.38;5027353;28;20483;-74
2023/09/30 09:51:12;;;;;;;24.25;22.55;;;;;;;26.84;73.25;101427.72;5027178;28;20045;-74
2023/09/30 09:53:41;;;;;;;25.77;23.88;;;;;;;27.35;64.37;101441.28;5027048;28;20042;-74
2023/09/30 09:56:11;;;;;;;25.00;23.13;;;;;;;26.98;71.48;101423.09;5022208;28;20049;-73
2023/09/30 09:58:42;;;;;;;26.42;24.63;;;;;;;26.30;74.96;101429.09;5026135;28;20103;-73
2023/09/30 10:01:11;;;;;;;26.02;24.33;;;;;;;27.49;69.02;101422.19;5028914;28;20041;-73
2023/09/30 10:03:39;;;;;;;29.38;27.48;;;;;;;28.01;67.00;101413.78;5026795;28;20358;-73
2023/09/30 10:06:06;;;;;;;23.60;21.65;;;;;;;27.56;66.49;101411.69;5026129;28;20045;-74
2023/09/30 10:08:39;;;;;;;43.60;24.67;;;;;;;26.54;73.50;101416.22;5025726;28;20056;-74
2023/09/30 10:11:06;;;;;;;26.30;24.40;;;;;;;27.02;68.17;101417.88;5028779;28;20041;-73
2023/09/30 10:13:55;;;;;;;27.35;25.45;;;;;;;27.42;57.51;101399.97;5026666;28;20434;-73
2023/09/30 10:16:51;;;;;;;51.03;24.98;;;;;;;27.53;57.45;101411.47;5027100;28;20065;-73
2023/09/30 10:19:19;;;;;;;28.45;26.45;;;;;;;27.84;58.58;101408.97;5024424;28;20049;-74
2023/09/30 10:22:19;;;;;;;28.10;25.92;;;;;;;28.21;53.06;101401.59;5028472;28;20645;-74
2023/09/30 10:24:46;;;;;;;27.02;25.02;;;;;;;28.02;58.94;101396.28;5025903;28;20156;-74
2023/09/30 10:27:37;;;;;;;27.33;25.05;;;;;;;26.23;75.35;101403.06;5028428;28;20064;-74
2023/09/30 10:30:16;;;;;;;27.60;25.70;;;;;;;26.97;53.34;101390.72;5026678;28;20053;-74
2023/09/30 10:33:10;;;;;;;25.45;23.65;;;;;;;27.84;57.06;101390.69;5026266;28;20042;-74
2023/09/30 10:35:45;;;;;;;24.67;22.80;;;;;;;28.25;48.48;101381.53;5025450;28;20119;-73
2023/09/30 10:38:43;;;;;;;26.23;24.33;;;;;;;28.28;53.26;101388.31;5021021;28;20089;-74
2023/09/30 10:41:11;;;;;;;26.92;24.92;;;;;;;28.27;47.03;101387.50;5027872;28;20107;-73
2023/09/30 10:43:40;;;;;;;27.90;25.70;;;;;;;29.22;49.48;101378.31;5026432;28;20053;-73
2023/09/30 10:46:34;;;;;;;27.17;24.98;;;;;;;29.42;43.43;101379.69;5025071;28;20052;-74
2023/09/30 10:49:35;;;;;;;26.05;23.95;;;;;;;30.75;39.18;101365.41;5022292;28;20042;-74
2023/09/30 10:52:02;;;;;;;25.95;23.95;;;;;;;28.90;43.08;101366.56;5027037;28;20499;-73
2023/09/30 10:54:30;;;;;;;25.92;24.02;;;;;;;30.03;41.12;101360.63;5027640;28;20144;-74
2023/09/30 10:56:59;;;;;;;27.63;25.52;;;;;;;30.27;39.34;101357.44;5026589;28;20503;-73
2023/09/30 10:59:30;;;;;;;25.50;23.50;;;;;;;31.99;36.01;101350.75;5026084;28;20416;-73
2023/09/30 11:01:58;;;;;;;26.60;24.60;;;;;;;32.42;33.86;101344.84;5024731;28;20514;-74
2023/09/30 11:04:27;;;;;;;26.83;24.88;;;;;;;29.67;38.90;101337.91;5025745;28;20042;-73
2023/09/30 11:06:53;;;;;;;26.65;24.45;;;;;;;30.17;39.18;101346.75;5028074;28;20431;-74
2023/09/30 11:09:22;;;;;;;27.38;25.15;;;;;;;30.92;38.10;101339.06;5027977;28;20487;-74
2023/09/30 11:11:50;;;;;;;28.60;26.33;;;;;;;30.19;36.34;101326.13;5024537;28;20060;-73